sensor_id;sensor_type;location;lat;lon;timestamp;pressure;altitude;pressure_sealevel;temperature;humidity
10462;BME280;5278;42.656;23.374;2022-10-22T00:02:18;95472.09;;;10.92;78.86
10462;BME280;5278;42.656;23.374;2022-10-22T00:04:46;95483.78;;;10.88;78.61
10462;BME280;5278;42.656;23.374;2022-10-22T00:07:14;95479.88;;;10.84;78.26
10462;BME280;5278;42.656;23.374;2022-10-22T00:09:42;95481.66;;;10.84;78.90
10462;BME280;5278;42.656;23.374;2022-10-22T00:12:11;95480.84;;;10.83;78.88
10462;BME280;5278;42.656;23.374;2022-10-22T00:14:38;95486.63;;;10.77;79.14
10462;BME280;5278;42.656;23.374;2022-10-22T00:17:05;95495.03;;;10.71;79.12
10462;BME280;5278;42.656;23.374;2022-10-22T00:19:32;95491.44;;;10.64;78.64
10462;BME280;5278;42.656;23.374;2022-10-22T00:21:59;95492.88;;;10.58;79.05
10462;BME280;5278;42.656;23.374;2022-10-22T00:24:31;95491.09;;;10.59;79.38
10462;BME280;5278;42.656;23.374;2022-10-22T00:26:58;95492.38;;;10.55;79.52
10462;BME280;5278;42.656;23.374;2022-10-22T00:29:25;95485.22;;;10.57;79.68
10462;BME280;5278;42.656;23.374;2022-10-22T00:31:52;95478.56;;;10.54;79.37
10462;BME280;5278;42.656;23.374;2022-10-22T00:34:21;95475.47;;;10.51;79.29
10462;BME280;5278;42.656;23.374;2022-10-22T00:36:48;95469.53;;;10.41;79.59
10462;BME280;5278;42.656;23.374;2022-10-22T00:39:17;95462.41;;;10.43;79.99
10462;BME280;5278;42.656;23.374;2022-10-22T00:41:48;95464.34;;;10.41;80.20
10462;BME280;5278;42.656;23.374;2022-10-22T00:47:21;95455.78;;;10.48;79.97
10462;BME280;5278;42.656;23.374;2022-10-22T00:49:49;95462.13;;;10.46;79.85
10462;BME280;5278;42.656;23.374;2022-10-22T00:52:16;95462.53;;;10.41;79.72
10462;BME280;5278;42.656;23.374;2022-10-22T00:54:43;95485.50;;;10.46;80.24
10462;BME280;5278;42.656;23.374;2022-10-22T00:57:11;95447.31;;;10.20;79.85
10462;BME280;5278;42.656;23.374;2022-10-22T00:59:39;95465.97;;;10.42;79.54
10462;BME280;5278;42.656;23.374;2022-10-22T01:02:07;95469.69;;;10.39;79.26
10462;BME280;5278;42.656;23.374;2022-10-22T01:04:34;95465.44;;;10.38;79.24
10462;BME280;5278;42.656;23.374;2022-10-22T01:07:01;95459.44;;;10.38;79.04
10462;BME280;5278;42.656;23.374;2022-10-22T01:09:33;95447.22;;;10.30;79.56
10462;BME280;5278;42.656;23.374;2022-10-22T01:12:17;95438.75;;;10.28;79.63
10462;BME280;5278;42.656;23.374;2022-10-22T01:15:04;95435.72;;;10.32;80.11
10462;BME280;5278;42.656;23.374;2022-10-22T01:17:41;95437.69;;;10.39;79.36
10462;BME280;5278;42.656;23.374;2022-10-22T01:20:21;95423.25;;;10.36;79.56
10462;BME280;5278;42.656;23.374;2022-10-22T01:23:00;95425.31;;;10.32;80.01
10462;BME280;5278;42.656;23.374;2022-10-22T01:25:34;95425.53;;;10.39;79.83
10462;BME280;5278;42.656;23.374;2022-10-22T01:28:14;95428.13;;;10.39;79.95
10462;BME280;5278;42.656;23.374;2022-10-22T01:30:44;95423.56;;;10.41;79.74
10462;BME280;5278;42.656;23.374;2022-10-22T01:33:14;95422.56;;;10.34;79.43
10462;BME280;5278;42.656;23.374;2022-10-22T01:35:44;95423.41;;;10.34;79.40
10462;BME280;5278;42.656;23.374;2022-10-22T01:38:14;95419.13;;;10.25;79.60
10462;BME280;5278;42.656;23.374;2022-10-22T01:40:43;95410.34;;;10.26;80.33
10462;BME280;5278;42.656;23.374;2022-10-22T01:43:11;95408.84;;;10.16;80.46
10462;BME280;5278;42.656;23.374;2022-10-22T01:45:41;95402.78;;;10.15;80.73
10462;BME280;5278;42.656;23.374;2022-10-22T01:48:19;95397.00;;;10.21;80.83
10462;BME280;5278;42.656;23.374;2022-10-22T01:51:04;95404.16;;;10.19;80.17
10462;BME280;5278;42.656;23.374;2022-10-22T01:53:39;95378.94;;;9.94;80.07
10462;BME280;5278;42.656;23.374;2022-10-22T01:56:30;95408.38;;;10.20;80.52
10462;BME280;5278;42.656;23.374;2022-10-22T01:59:06;95407.69;;;10.18;79.84
10462;BME280;5278;42.656;23.374;2022-10-22T02:01:46;95414.75;;;10.08;79.76
10462;BME280;5278;42.656;23.374;2022-10-22T02:04:21;95410.81;;;10.04;79.53
10462;BME280;5278;42.656;23.374;2022-10-22T02:06:53;95421.66;;;10.00;79.40
10462;BME280;5278;42.656;23.374;2022-10-22T02:09:25;95414.47;;;9.93;79.22
10462;BME280;5278;42.656;23.374;2022-10-22T02:11:53;95417.88;;;9.94;78.95
10462;BME280;5278;42.656;23.374;2022-10-22T02:14:22;95416.84;;;9.87;79.08
10462;BME280;5278;42.656;23.374;2022-10-22T02:16:51;95422.13;;;9.77;79.05
10462;BME280;5278;42.656;23.374;2022-10-22T02:19:27;95417.31;;;9.65;79.60
10462;BME280;5278;42.656;23.374;2022-10-22T02:21:58;95412.13;;;9.65;80.49
10462;BME280;5278;42.656;23.374;2022-10-22T02:24:25;95401.75;;;9.65;81.25
10462;BME280;5278;42.656;23.374;2022-10-22T02:26:58;95416.38;;;9.66;81.93
10462;BME280;5278;42.656;23.374;2022-10-22T02:29:29;95405.00;;;9.67;81.89
10462;BME280;5278;42.656;23.374;2022-10-22T02:32:00;95399.38;;;9.71;81.70
10462;BME280;5278;42.656;23.374;2022-10-22T02:34:31;95407.31;;;9.70;81.89
10462;BME280;5278;42.656;23.374;2022-10-22T02:36:59;95414.13;;;9.71;81.90
10462;BME280;5278;42.656;23.374;2022-10-22T02:39:27;95419.03;;;9.74;81.89
10462;BME280;5278;42.656;23.374;2022-10-22T02:41:55;95418.72;;;9.77;80.62
10462;BME280;5278;42.656;23.374;2022-10-22T02:44:23;95416.44;;;9.74;80.29
10462;BME280;5278;42.656;23.374;2022-10-22T02:46:50;95416.72;;;9.71;80.46
10462;BME280;5278;42.656;23.374;2022-10-22T02:49:17;95425.16;;;9.73;80.28
10462;BME280;5278;42.656;23.374;2022-10-22T02:51:45;95432.38;;;9.79;81.08
10462;BME280;5278;42.656;23.374;2022-10-22T02:54:12;95431.41;;;9.80;80.60
10462;BME280;5278;42.656;23.374;2022-10-22T02:56:39;95430.72;;;9.78;80.10
10462;BME280;5278;42.656;23.374;2022-10-22T02:59:06;95427.13;;;9.71;80.50
10462;BME280;5278;42.656;23.374;2022-10-22T03:01:33;95429.41;;;9.74;80.59
10462;BME280;5278;42.656;23.374;2022-10-22T03:04:00;95424.50;;;9.71;80.87
10462;BME280;5278;42.656;23.374;2022-10-22T03:06:27;95424.16;;;9.66;81.26
10462;BME280;5278;42.656;23.374;2022-10-22T03:08:56;95422.38;;;9.66;81.63
10462;BME280;5278;42.656;23.374;2022-10-22T03:11:23;95430.00;;;9.68;81.79
10462;BME280;5278;42.656;23.374;2022-10-22T03:13:51;95420.16;;;9.71;81.34
10462;BME280;5278;42.656;23.374;2022-10-22T03:16:17;95430.34;;;9.73;81.14
10462;BME280;5278;42.656;23.374;2022-10-22T03:18:44;95420.66;;;9.75;80.64
10462;BME280;5278;42.656;23.374;2022-10-22T03:21:17;95417.97;;;9.67;80.52
10462;BME280;5278;42.656;23.374;2022-10-22T03:23:46;95406.94;;;9.65;81.62
10462;BME280;5278;42.656;23.374;2022-10-22T03:26:15;95415.75;;;9.72;81.27
10462;BME280;5278;42.656;23.374;2022-10-22T03:28:42;95410.88;;;9.69;81.41
10462;BME280;5278;42.656;23.374;2022-10-22T03:31:11;95422.75;;;9.71;81.76
10462;BME280;5278;42.656;23.374;2022-10-22T03:33:38;95411.53;;;9.71;81.14
10462;BME280;5278;42.656;23.374;2022-10-22T03:36:07;95410.56;;;9.72;81.41
10462;BME280;5278;42.656;23.374;2022-10-22T03:38:34;95411.81;;;9.68;81.52
10462;BME280;5278;42.656;23.374;2022-10-22T03:41:01;95412.88;;;9.57;81.74
10462;BME280;5278;42.656;23.374;2022-10-22T03:43:30;95408.34;;;9.59;81.90
10462;BME280;5278;42.656;23.374;2022-10-22T03:45:57;95408.94;;;9.53;81.78
10462;BME280;5278;42.656;23.374;2022-10-22T03:48:24;95383.38;;;9.40;81.61
10462;BME280;5278;42.656;23.374;2022-10-22T03:50:51;95392.88;;;9.49;81.66
10462;BME280;5278;42.656;23.374;2022-10-22T03:53:18;95402.94;;;9.52;81.71
10462;BME280;5278;42.656;23.374;2022-10-22T03:55:44;95411.25;;;9.56;81.67
10462;BME280;5278;42.656;23.374;2022-10-22T03:58:11;95424.00;;;9.49;82.29
10462;BME280;5278;42.656;23.374;2022-10-22T04:00:40;95405.53;;;9.52;82.26
10462;BME280;5278;42.656;23.374;2022-10-22T04:03:07;95426.59;;;9.49;82.02
10462;BME280;5278;42.656;23.374;2022-10-22T04:05:35;95414.28;;;9.51;82.20
10462;BME280;5278;42.656;23.374;2022-10-22T04:08:03;95414.28;;;9.51;82.39
10462;BME280;5278;42.656;23.374;2022-10-22T04:10:29;95402.94;;;9.52;82.50
10462;BME280;5278;42.656;23.374;2022-10-22T04:12:56;95402.50;;;9.57;82.44
10462;BME280;5278;42.656;23.374;2022-10-22T04:15:23;95394.78;;;9.65;82.06
10462;BME280;5278;42.656;23.374;2022-10-22T04:17:54;95401.31;;;9.69;81.62
10462;BME280;5278;42.656;23.374;2022-10-22T04:20:21;95407.31;;;9.70;81.11
10462;BME280;5278;42.656;23.374;2022-10-22T04:22:48;95405.09;;;9.75;80.41
10462;BME280;5278;42.656;23.374;2022-10-22T04:25:15;95388.78;;;9.65;80.00
10462;BME280;5278;42.656;23.374;2022-10-22T04:27:44;95400.50;;;9.51;80.44
10462;BME280;5278;42.656;23.374;2022-10-22T04:30:11;95404.13;;;9.40;80.97
10462;BME280;5278;42.656;23.374;2022-10-22T04:32:39;95421.81;;;9.27;81.56
10462;BME280;5278;42.656;23.374;2022-10-22T04:35:07;95397.06;;;9.15;82.63
10462;BME280;5278;42.656;23.374;2022-10-22T04:37:35;95401.88;;;9.10;82.91
10462;BME280;5278;42.656;23.374;2022-10-22T04:40:03;95401.44;;;9.15;83.85
10462;BME280;5278;42.656;23.374;2022-10-22T04:42:30;95402.63;;;9.20;83.65
10462;BME280;5278;42.656;23.374;2022-10-22T04:44:57;95409.16;;;9.24;83.87
10462;BME280;5278;42.656;23.374;2022-10-22T04:47:26;95407.06;;;9.28;83.80
10462;BME280;5278;42.656;23.374;2022-10-22T04:49:52;95408.78;;;9.37;83.76
10462;BME280;5278;42.656;23.374;2022-10-22T04:52:21;95402.06;;;9.44;83.96
10462;BME280;5278;42.656;23.374;2022-10-22T04:54:48;95393.47;;;9.43;83.15
10462;BME280;5278;42.656;23.374;2022-10-22T04:57:16;95402.19;;;9.42;82.78
10462;BME280;5278;42.656;23.374;2022-10-22T04:59:43;95407.25;;;9.44;82.82
10462;BME280;5278;42.656;23.374;2022-10-22T05:02:10;95408.28;;;9.51;82.39
10462;BME280;5278;42.656;23.374;2022-10-22T05:04:36;95417.09;;;9.58;81.70
10462;BME280;5278;42.656;23.374;2022-10-22T05:07:03;95408.72;;;9.64;81.32
10462;BME280;5278;42.656;23.374;2022-10-22T05:09:32;95410.56;;;9.72;80.75
10462;BME280;5278;42.656;23.374;2022-10-22T05:11:59;95419.16;;;9.72;80.01
10462;BME280;5278;42.656;23.374;2022-10-22T05:14:26;95428.88;;;9.70;80.41
10462;BME280;5278;42.656;23.374;2022-10-22T05:16:53;95419.41;;;9.61;80.64
10462;BME280;5278;42.656;23.374;2022-10-22T05:19:21;95436.50;;;9.72;80.76
10462;BME280;5278;42.656;23.374;2022-10-22T05:21:49;95433.41;;;9.86;81.01
10462;BME280;5278;42.656;23.374;2022-10-22T05:24:16;95427.81;;;9.99;80.29
10462;BME280;5278;42.656;23.374;2022-10-22T05:26:47;95431.00;;;10.10;79.39
10462;BME280;5278;42.656;23.374;2022-10-22T05:29:15;95434.34;;;10.20;79.12
10462;BME280;5278;42.656;23.374;2022-10-22T05:31:42;95435.06;;;10.30;78.69
10462;BME280;5278;42.656;23.374;2022-10-22T05:34:09;95432.97;;;10.34;78.58
10462;BME280;5278;42.656;23.374;2022-10-22T05:36:37;95433.31;;;10.39;77.66
10462;BME280;5278;42.656;23.374;2022-10-22T05:39:04;95437.38;;;10.42;77.92
10462;BME280;5278;42.656;23.374;2022-10-22T05:41:32;95433.56;;;10.54;77.34
10462;BME280;5278;42.656;23.374;2022-10-22T05:44:01;95442.75;;;10.66;77.11
10462;BME280;5278;42.656;23.374;2022-10-22T05:46:29;95441.50;;;10.78;76.54
10462;BME280;5278;42.656;23.374;2022-10-22T05:49:00;95439.75;;;10.87;76.38
10462;BME280;5278;42.656;23.374;2022-10-22T05:51:30;95430.91;;;11.05;75.50
10462;BME280;5278;42.656;23.374;2022-10-22T05:53:59;95422.31;;;11.21;74.67
10462;BME280;5278;42.656;23.374;2022-10-22T05:56:27;95429.81;;;11.32;74.54
10462;BME280;5278;42.656;23.374;2022-10-22T05:58:56;95431.41;;;11.75;73.12
10462;BME280;5278;42.656;23.374;2022-10-22T06:01:27;95439.84;;;12.26;71.06
10462;BME280;5278;42.656;23.374;2022-10-22T06:03:56;95425.84;;;12.43;69.43
10462;BME280;5278;42.656;23.374;2022-10-22T06:06:26;95437.50;;;12.79;68.14
10462;BME280;5278;42.656;23.374;2022-10-22T06:08:55;95445.75;;;12.91;67.35
10462;BME280;5278;42.656;23.374;2022-10-22T06:11:23;95442.63;;;13.04;66.94
10462;BME280;5278;42.656;23.374;2022-10-22T06:13:50;95432.41;;;13.33;66.64
10462;BME280;5278;42.656;23.374;2022-10-22T06:16:17;95431.78;;;13.85;64.88
10462;BME280;5278;42.656;23.374;2022-10-22T06:18:46;95426.75;;;14.43;61.85
10462;BME280;5278;42.656;23.374;2022-10-22T06:21:14;95439.13;;;14.79;60.13
10462;BME280;5278;42.656;23.374;2022-10-22T06:23:42;95437.22;;;15.17;58.78
10462;BME280;5278;42.656;23.374;2022-10-22T06:26:09;95438.09;;;15.74;56.89
10462;BME280;5278;42.656;23.374;2022-10-22T06:28:37;95436.22;;;16.53;53.99
10462;BME280;5278;42.656;23.374;2022-10-22T06:31:04;95428.72;;;17.12;51.73
10462;BME280;5278;42.656;23.374;2022-10-22T06:33:32;95426.97;;;17.67;50.11
10462;BME280;5278;42.656;23.374;2022-10-22T06:36:10;95338.59;;;17.66;47.83
10462;BME280;5278;42.656;23.374;2022-10-22T06:38:38;95383.03;;;19.06;52.90
10462;BME280;5278;42.656;23.374;2022-10-22T06:41:06;95430.78;;;20.43;48.66
10462;BME280;5278;42.656;23.374;2022-10-22T06:43:33;95425.38;;;21.42;42.42
10462;BME280;5278;42.656;23.374;2022-10-22T06:46:01;95405.03;;;22.20;39.64
10462;BME280;5278;42.656;23.374;2022-10-22T06:48:28;95410.19;;;22.80;38.15
10462;BME280;5278;42.656;23.374;2022-10-22T06:51:00;95410.09;;;23.38;36.16
10462;BME280;5278;42.656;23.374;2022-10-22T06:53:28;95412.66;;;23.85;34.82
10462;BME280;5278;42.656;23.374;2022-10-22T06:55:55;95405.47;;;24.14;34.41
10462;BME280;5278;42.656;23.374;2022-10-22T06:58:22;95409.13;;;24.24;34.06
10462;BME280;5278;42.656;23.374;2022-10-22T07:00:49;95413.34;;;24.54;33.21
10462;BME280;5278;42.656;23.374;2022-10-22T07:03:15;95412.69;;;24.97;32.19
10462;BME280;5278;42.656;23.374;2022-10-22T07:05:42;95422.84;;;25.38;31.67
10462;BME280;5278;42.656;23.374;2022-10-22T07:08:09;95417.09;;;25.90;30.89
10462;BME280;5278;42.656;23.374;2022-10-22T07:10:37;95408.38;;;26.53;29.96
10462;BME280;5278;42.656;23.374;2022-10-22T07:13:04;95390.19;;;26.82;29.48
10462;BME280;5278;42.656;23.374;2022-10-22T07:15:31;95396.16;;;27.41;29.02
10462;BME280;5278;42.656;23.374;2022-10-22T07:17:57;95391.25;;;27.80;28.31
10462;BME280;5278;42.656;23.374;2022-10-22T07:20:24;95396.94;;;27.99;27.56
10462;BME280;5278;42.656;23.374;2022-10-22T07:22:51;95399.94;;;28.33;26.96
10462;BME280;5278;42.656;23.374;2022-10-22T07:25:18;95396.72;;;28.31;27.30
10462;BME280;5278;42.656;23.374;2022-10-22T07:27:46;95404.25;;;28.79;26.87
10462;BME280;5278;42.656;23.374;2022-10-22T07:30:13;95395.09;;;29.16;26.83
10462;BME280;5278;42.656;23.374;2022-10-22T07:32:39;95396.13;;;29.25;26.69
10462;BME280;5278;42.656;23.374;2022-10-22T07:35:07;95401.41;;;29.55;26.28
10462;BME280;5278;42.656;23.374;2022-10-22T07:37:34;95387.09;;;29.80;25.17
10462;BME280;5278;42.656;23.374;2022-10-22T07:40:01;95385.50;;;30.28;24.79
10462;BME280;5278;42.656;23.374;2022-10-22T07:42:28;95386.84;;;30.64;24.39
10462;BME280;5278;42.656;23.374;2022-10-22T07:44:56;95389.44;;;30.74;23.91
10462;BME280;5278;42.656;23.374;2022-10-22T07:47:23;95375.53;;;31.25;23.48
10462;BME280;5278;42.656;23.374;2022-10-22T07:49:50;95372.94;;;31.68;23.17
10462;BME280;5278;42.656;23.374;2022-10-22T07:52:17;95374.75;;;31.72;22.76
10462;BME280;5278;42.656;23.374;2022-10-22T07:54:44;95360.72;;;31.94;22.46
10462;BME280;5278;42.656;23.374;2022-10-22T07:57:10;95354.44;;;32.22;22.41
10462;BME280;5278;42.656;23.374;2022-10-22T07:59:37;95363.28;;;32.41;21.94
10462;BME280;5278;42.656;23.374;2022-10-22T08:02:05;95369.47;;;32.42;21.82
10462;BME280;5278;42.656;23.374;2022-10-22T08:04:32;95372.09;;;32.47;21.68
10462;BME280;5278;42.656;23.374;2022-10-22T08:06:59;95372.72;;;32.90;21.43
10462;BME280;5278;42.656;23.374;2022-10-22T08:09:26;95357.78;;;33.11;21.44
10462;BME280;5278;42.656;23.374;2022-10-22T08:11:53;95359.75;;;32.92;21.58
10462;BME280;5278;42.656;23.374;2022-10-22T08:14:20;95366.09;;;33.28;21.10
10462;BME280;5278;42.656;23.374;2022-10-22T08:16:48;95351.41;;;33.48;20.89
10462;BME280;5278;42.656;23.374;2022-10-22T08:19:16;95358.78;;;33.97;20.36
10462;BME280;5278;42.656;23.374;2022-10-22T08:21:45;95363.75;;;34.40;19.74
10462;BME280;5278;42.656;23.374;2022-10-22T08:24:12;95354.59;;;34.49;19.92
10462;BME280;5278;42.656;23.374;2022-10-22T08:26:41;95351.13;;;34.71;19.94
10462;BME280;5278;42.656;23.374;2022-10-22T08:29:07;95331.47;;;34.35;19.67
10462;BME280;5278;42.656;23.374;2022-10-22T08:31:34;95347.22;;;34.64;19.96
10462;BME280;5278;42.656;23.374;2022-10-22T08:34:01;95345.47;;;34.81;19.39
10462;BME280;5278;42.656;23.374;2022-10-22T08:36:31;95346.03;;;35.01;19.88
10462;BME280;5278;42.656;23.374;2022-10-22T08:38:58;95342.97;;;34.93;19.21
10462;BME280;5278;42.656;23.374;2022-10-22T08:41:25;95339.03;;;35.22;18.97
10462;BME280;5278;42.656;23.374;2022-10-22T08:44:21;95344.53;;;35.56;18.54
10462;BME280;5278;42.656;23.374;2022-10-22T08:47:14;95347.97;;;35.31;18.84
10462;BME280;5278;42.656;23.374;2022-10-22T08:49:46;95338.41;;;35.42;19.48
10462;BME280;5278;42.656;23.374;2022-10-22T08:52:16;95347.31;;;35.03;19.28
10462;BME280;5278;42.656;23.374;2022-10-22T08:54:50;95342.44;;;35.45;18.57
10462;BME280;5278;42.656;23.374;2022-10-22T08:57:34;95339.94;;;35.65;18.35
10462;BME280;5278;42.656;23.374;2022-10-22T09:00:05;95340.63;;;35.88;18.34
10462;BME280;5278;42.656;23.374;2022-10-22T09:02:45;95341.28;;;35.85;19.01
10462;BME280;5278;42.656;23.374;2022-10-22T09:05:24;95344.78;;;35.86;18.94
10462;BME280;5278;42.656;23.374;2022-10-22T09:07:56;95341.31;;;35.46;18.71
10462;BME280;5278;42.656;23.374;2022-10-22T09:10:24;95311.56;;;35.06;19.40
10462;BME280;5278;42.656;23.374;2022-10-22T09:12:52;95339.66;;;35.27;18.86
10462;BME280;5278;42.656;23.374;2022-10-22T09:15:19;95334.53;;;35.17;18.88
10462;BME280;5278;42.656;23.374;2022-10-22T09:17:58;95326.22;;;35.14;18.79
10462;BME280;5278;42.656;23.374;2022-10-22T09:20:35;95331.59;;;35.36;18.88
10462;BME280;5278;42.656;23.374;2022-10-22T09:23:18;95322.63;;;35.66;18.99
10462;BME280;5278;42.656;23.374;2022-10-22T09:25:48;95331.75;;;35.48;18.75
10462;BME280;5278;42.656;23.374;2022-10-22T09:28:17;95330.78;;;35.35;19.38
10462;BME280;5278;42.656;23.374;2022-10-22T09:30:44;95318.44;;;35.52;19.08
10462;BME280;5278;42.656;23.374;2022-10-22T09:33:13;95312.44;;;35.80;18.38
10462;BME280;5278;42.656;23.374;2022-10-22T09:35:45;95319.13;;;35.66;19.11
10462;BME280;5278;42.656;23.374;2022-10-22T09:38:16;95309.56;;;35.68;18.74
10462;BME280;5278;42.656;23.374;2022-10-22T09:40:46;95308.84;;;35.46;19.15
10462;BME280;5278;42.656;23.374;2022-10-22T09:43:14;95311.72;;;35.01;18.77
10462;BME280;5278;42.656;23.374;2022-10-22T09:45:42;95308.94;;;34.62;19.99
10462;BME280;5278;42.656;23.374;2022-10-22T09:48:13;95298.25;;;34.56;19.38
10462;BME280;5278;42.656;23.374;2022-10-22T09:50:44;95299.03;;;34.12;19.95
10462;BME280;5278;42.656;23.374;2022-10-22T09:53:16;95287.44;;;33.90;20.11
10462;BME280;5278;42.656;23.374;2022-10-22T09:55:50;95283.97;;;34.11;20.09
10462;BME280;5278;42.656;23.374;2022-10-22T09:58:17;95275.56;;;34.35;19.79
10462;BME280;5278;42.656;23.374;2022-10-22T10:00:47;95285.56;;;34.57;19.63
10462;BME280;5278;42.656;23.374;2022-10-22T10:03:18;95276.88;;;34.99;19.31
10462;BME280;5278;42.656;23.374;2022-10-22T10:05:51;95283.38;;;34.98;20.81
10462;BME280;5278;42.656;23.374;2022-10-22T10:08:19;95281.63;;;35.03;19.50
10462;BME280;5278;42.656;23.374;2022-10-22T10:10:49;95266.56;;;35.02;21.13
10462;BME280;5278;42.656;23.374;2022-10-22T10:16:11;95268.97;;;35.12;20.28
10462;BME280;5278;42.656;23.374;2022-10-22T10:18:50;95275.88;;;34.34;20.27
10462;BME280;5278;42.656;23.374;2022-10-22T10:21:27;95263.50;;;33.61;21.33
10462;BME280;5278;42.656;23.374;2022-10-22T10:24:04;95234.63;;;32.84;21.27
10462;BME280;5278;42.656;23.374;2022-10-22T10:26:44;95256.47;;;33.10;20.83
10462;BME280;5278;42.656;23.374;2022-10-22T10:29:24;95259.59;;;33.31;21.21
10462;BME280;5278;42.656;23.374;2022-10-22T10:32:05;95259.16;;;33.51;20.66
10462;BME280;5278;42.656;23.374;2022-10-22T10:34:44;95253.13;;;33.68;20.43
10462;BME280;5278;42.656;23.374;2022-10-22T10:37:19;95251.19;;;33.33;20.64
10462;BME280;5278;42.656;23.374;2022-10-22T10:40:24;95250.00;;;32.98;21.53
10462;BME280;5278;42.656;23.374;2022-10-22T10:42:57;95244.16;;;32.63;21.76
10462;BME280;5278;42.656;23.374;2022-10-22T10:45:31;95239.63;;;33.18;21.42
10462;BME280;5278;42.656;23.374;2022-10-22T10:48:16;95232.78;;;33.48;20.70
10462;BME280;5278;42.656;23.374;2022-10-22T10:50:55;95220.75;;;33.18;20.89
10462;BME280;5278;42.656;23.374;2022-10-22T10:53:33;95229.91;;;33.04;21.13
10462;BME280;5278;42.656;23.374;2022-10-22T10:56:10;95214.47;;;32.96;21.17
10462;BME280;5278;42.656;23.374;2022-10-22T10:58:49;95210.09;;;32.86;21.36
10462;BME280;5278;42.656;23.374;2022-10-22T11:01:25;95203.41;;;32.97;21.44
10462;BME280;5278;42.656;23.374;2022-10-22T11:04:14;95200.91;;;32.87;21.29
10462;BME280;5278;42.656;23.374;2022-10-22T11:06:48;95191.03;;;32.69;21.64
10462;BME280;5278;42.656;23.374;2022-10-22T11:09:23;95193.00;;;32.50;21.57
10462;BME280;5278;42.656;23.374;2022-10-22T11:11:56;95180.41;;;32.18;22.10
10462;BME280;5278;42.656;23.374;2022-10-22T11:14:29;95157.84;;;31.68;22.46
10462;BME280;5278;42.656;23.374;2022-10-22T11:17:02;95176.41;;;31.83;22.56
10462;BME280;5278;42.656;23.374;2022-10-22T11:19:34;95173.88;;;32.05;22.28
10462;BME280;5278;42.656;23.374;2022-10-22T11:22:05;95161.81;;;32.02;22.52
10462;BME280;5278;42.656;23.374;2022-10-22T11:24:37;95158.44;;;31.27;22.84
10462;BME280;5278;42.656;23.374;2022-10-22T11:27:14;95144.19;;;31.27;22.80
10462;BME280;5278;42.656;23.374;2022-10-22T11:29:48;95151.31;;;31.36;23.13
10462;BME280;5278;42.656;23.374;2022-10-22T11:32:18;95144.00;;;30.99;23.04
10462;BME280;5278;42.656;23.374;2022-10-22T11:34:49;95141.84;;;30.83;23.64
10462;BME280;5278;42.656;23.374;2022-10-22T11:37:19;95138.16;;;30.97;23.72
10462;BME280;5278;42.656;23.374;2022-10-22T11:39:50;95130.63;;;31.18;23.49
10462;BME280;5278;42.656;23.374;2022-10-22T11:42:22;95103.22;;;30.97;23.46
10462;BME280;5278;42.656;23.374;2022-10-22T11:44:59;95118.63;;;31.29;23.08
10462;BME280;5278;42.656;23.374;2022-10-22T11:47:27;95123.59;;;31.22;23.18
10462;BME280;5278;42.656;23.374;2022-10-22T11:49:58;95131.72;;;30.74;23.61
10462;BME280;5278;42.656;23.374;2022-10-22T11:52:39;95120.25;;;30.45;24.26
10462;BME280;5278;42.656;23.374;2022-10-22T11:55:31;95117.03;;;30.48;24.48
10462;BME280;5278;42.656;23.374;2022-10-22T11:58:01;95114.59;;;30.70;24.09
10462;BME280;5278;42.656;23.374;2022-10-22T12:00:48;95121.44;;;30.82;24.09
10462;BME280;5278;42.656;23.374;2022-10-22T12:03:18;95115.31;;;30.57;24.49
10462;BME280;5278;42.656;23.374;2022-10-22T12:06:02;95116.59;;;30.36;24.25
10462;BME280;5278;42.656;23.374;2022-10-22T12:08:43;95107.94;;;30.20;24.66
10462;BME280;5278;42.656;23.374;2022-10-22T12:11:19;95106.69;;;30.13;25.08
10462;BME280;5278;42.656;23.374;2022-10-22T12:14:06;95105.59;;;29.85;25.16
10462;BME280;5278;42.656;23.374;2022-10-22T12:16:42;95090.13;;;29.48;25.64
10462;BME280;5278;42.656;23.374;2022-10-22T12:19:15;95103.94;;;29.26;25.71
10462;BME280;5278;42.656;23.374;2022-10-22T12:21:46;95092.41;;;28.92;26.26
10462;BME280;5278;42.656;23.374;2022-10-22T12:24:18;95086.03;;;28.83;26.13
10462;BME280;5278;42.656;23.374;2022-10-22T12:26:45;95058.69;;;28.37;27.01
10462;BME280;5278;42.656;23.374;2022-10-22T12:29:16;95096.41;;;28.35;26.86
10462;BME280;5278;42.656;23.374;2022-10-22T12:31:44;95094.38;;;27.92;27.54
10462;BME280;5278;42.656;23.374;2022-10-22T12:34:13;95096.84;;;27.68;27.95
10462;BME280;5278;42.656;23.374;2022-10-22T12:36:41;95095.78;;;27.54;28.18
10462;BME280;5278;42.656;23.374;2022-10-22T12:39:11;95060.25;;;26.97;28.64
10462;BME280;5278;42.656;23.374;2022-10-22T12:41:39;95098.66;;;26.96;29.07
10462;BME280;5278;42.656;23.374;2022-10-22T12:44:09;95088.94;;;26.60;29.14
10462;BME280;5278;42.656;23.374;2022-10-22T12:46:38;95069.78;;;26.06;29.84
10462;BME280;5278;42.656;23.374;2022-10-22T12:49:12;94997.22;;;25.32;30.13
10462;BME280;5278;42.656;23.374;2022-10-22T12:51:40;95081.31;;;25.33;30.96
10462;BME280;5278;42.656;23.374;2022-10-22T12:54:09;95086.03;;;24.94;31.95
10462;BME280;5278;42.656;23.374;2022-10-22T12:56:40;95079.25;;;24.54;32.21
10462;BME280;5278;42.656;23.374;2022-10-22T12:59:17;95076.59;;;24.54;32.51
10462;BME280;5278;42.656;23.374;2022-10-22T13:01:47;95073.34;;;24.25;33.11
10462;BME280;5278;42.656;23.374;2022-10-22T13:04:20;95077.88;;;24.08;33.61
10462;BME280;5278;42.656;23.374;2022-10-22T13:06:49;95075.78;;;23.88;34.25
10462;BME280;5278;42.656;23.374;2022-10-22T13:09:18;95076.69;;;23.77;33.94
10462;BME280;5278;42.656;23.374;2022-10-22T13:11:50;95066.59;;;23.57;34.26
10462;BME280;5278;42.656;23.374;2022-10-22T13:14:25;95067.56;;;23.51;34.69
10462;BME280;5278;42.656;23.374;2022-10-22T13:17:09;95024.31;;;23.17;35.07
10462;BME280;5278;42.656;23.374;2022-10-22T13:19:42;95058.56;;;23.52;34.90
10462;BME280;5278;42.656;23.374;2022-10-22T13:22:24;95063.19;;;23.62;35.16
10462;BME280;5278;42.656;23.374;2022-10-22T13:24:52;95063.19;;;23.62;34.97
10462;BME280;5278;42.656;23.374;2022-10-22T13:27:20;95057.81;;;23.57;34.86